< < Back
Terminal Aerodrome Forecast


Current Version              Previous Versions:   1  2  3  4  5  6  7  8  9  

Terminal Aerodrome Forecast

121
FTUS44 KBMX 021128
TAFBHM
TAF
KBHM 021128Z 0212/0312 22007KT P6SM BKN010
     FM021400 24010KT P6SM BKN020
     FM021700 24010KT P6SM VCTS BKN040CB
     FM030000 22012KT P6SM SCT025 OVC200
     FM030600 21012KT P6SM VCTS BKN025CB=

Latest METAR

083
SAUS70 KWBC 021600 RRB
MTRBHM
METAR KBHM 021553Z 24010KT 10SM -RA SCT080 BKN100 BKN250 27/22 A3006 RMK
AO2 RAB37 SLP170 P0000 T02720222


USA.gov is the U.S. government's official web portal to all federal, state and local government web resources and services.